R8861 YSWL-YHTF

Flight info

Callsign R8861
Flight time N/A
Altitude 6500
Route YHSM DCT YBOR DCT YMBD
Aircraft RV3/L-SFG/C

Departure

Time 2026-05-07 09:02
Airport Stawell Airport (YSWL)

Arrival

Time N/A
Airport YHTF
Time Latitude Longitude Altitude Speed Heading
2026-05-07 08:55 -37.06852 142.74193 758 ft 0 kts 251°
2026-05-07 08:58 -37.06877 142.74156 759 ft 5 kts 224°
2026-05-07 08:58 -37.06886 142.74149 759 ft 1 kts 195°
2026-05-07 08:58 -37.06924 142.74115 760 ft 0 kts 193°
2026-05-07 08:59 -37.06921 142.74118 760 ft 1 kts 61°
2026-05-07 08:59 -37.06936 142.74197 760 ft 19 kts 152°
2026-05-07 08:59 -37.06992 142.74243 761 ft 2 kts 161°
2026-05-07 08:59 -37.07125 142.74262 764 ft 25 kts 165°
2026-05-07 09:00 -37.07267 142.74284 769 ft 15 kts 217°
2026-05-07 09:00 -37.07283 142.74182 770 ft 12 kts 272°
2026-05-07 09:00 -37.07327 142.74173 771 ft 14 kts 149°
2026-05-07 09:00 -37.07388 142.74205 773 ft 0 kts 325°
2026-05-07 09:01 -37.07347 142.74184 772 ft 16 kts 330°
2026-05-07 09:02 -37.07175 142.74147 768 ft 32 kts
2026-05-07 09:02 -37.07046 142.73997 762 ft 49 kts 294°
2026-05-07 09:02 -37.06796 142.73331 774 ft 108 kts 293°
2026-05-07 09:02 -37.06586 142.72700 1477 ft 75 kts 284°
2026-05-07 09:03 -37.06352 142.72084 1775 ft 91 kts 306°
2026-05-07 09:03 -37.06092 142.71674 2043 ft 91 kts 301°
2026-05-07 09:03 -37.05775 142.70995 2450 ft 91 kts 292°
2026-05-07 09:03 -37.05505 142.70029 2957 ft 93 kts 283°
2026-05-07 09:04 -37.05333 142.69257 3336 ft 93 kts 284°
2026-05-07 09:04 -37.05066 142.68507 3721 ft 96 kts 300°
2026-05-07 09:04 -37.04790 142.68031 3873 ft 106 kts 297°
2026-05-07 09:04 -37.04275 142.66962 4118 ft 129 kts 297°
2026-05-07 09:05 -37.03748 142.65955 4231 ft 139 kts 297°
2026-05-07 09:05 -37.03320 142.65192 5114 ft 90 kts 301°
2026-05-07 09:05 -37.02925 142.64552 5278 ft 110 kts 301°
2026-05-07 09:05 -37.02403 142.63684 5293 ft 135 kts 305°
2026-05-07 09:06 -37.01839 142.62955 5830 ft 94 kts 305°
2026-05-07 09:06 -37.01515 142.62473 6008 ft 77 kts 288°
2026-05-07 09:06 -37.01276 142.61841 6150 ft 88 kts 287°
2026-05-07 09:06 -37.01078 142.61174 6321 ft 71 kts 286°
2026-05-07 09:07 -37.00930 142.60586 6388 ft 66 kts 281°
2026-05-07 09:07 -37.00848 142.60191 6445 ft 71 kts 276°
2026-05-07 09:07 -37.00856 142.59369 6544 ft 80 kts 264°
2026-05-07 09:07 -37.00967 142.58664 6595 ft 86 kts 255°
2026-05-07 09:08 -37.00990 142.57939 6702 ft 84 kts 277°
2026-05-07 09:08 -37.00969 142.57243 6840 ft 80 kts 265°
2026-05-07 09:08 -37.01041 142.56369 6763 ft 115 kts 272°
2026-05-07 09:08 -37.00881 142.55368 6811 ft 127 kts 279°
2026-05-07 09:09 -37.00730 142.54309 7117 ft 117 kts 279°
2026-05-07 09:09 -37.00569 142.53146 6628 ft 145 kts 278°
2026-05-07 09:09 -37.00386 142.51932 6606 ft 146 kts 285°
2026-05-07 09:09 -37.00103 142.50737 6657 ft 142 kts 283°
2026-05-07 09:10 -36.99892 142.49574 6717 ft 135 kts 279°
2026-05-07 09:10 -36.99768 142.48384 6652 ft 142 kts 273°
2026-05-07 09:10 -36.99661 142.47185 6836 ft 134 kts 279°
2026-05-07 09:10 -36.99358 142.46057 6745 ft 137 kts 290°
2026-05-07 09:11 -36.99009 142.44989 6843 ft 127 kts 287°
2026-05-07 09:11 -36.98745 142.43884 6685 ft 134 kts 281°
2026-05-07 09:11 -36.98521 142.42783 6740 ft 128 kts 279°
2026-05-07 09:11 -36.98334 142.41692 6716 ft 128 kts 298°
2026-05-07 09:12 -36.97774 142.40852 6693 ft 130 kts 301°
2026-05-07 09:12 -36.97283 142.39897 6677 ft 129 kts 297°
2026-05-07 09:12 -36.96810 142.38962 6693 ft 127 kts 297°
2026-05-07 09:12 -36.96334 142.38019 6685 ft 126 kts 300°
2026-05-07 09:13 -36.95870 142.37102 6688 ft 126 kts 298°
2026-05-07 09:13 -36.95358 142.36198 6683 ft 126 kts 304°
2026-05-07 09:13 -36.94811 142.35341 6689 ft 126 kts 303°
2026-05-07 09:13 -36.94268 142.34482 6693 ft 126 kts 303°
2026-05-07 09:14 -36.93711 142.33618 6690 ft 128 kts 308°
2026-05-07 09:14 -36.93098 142.32805 6693 ft 128 kts 305°
2026-05-07 09:14 -36.92538 142.31921 6696 ft 131 kts 303°
2026-05-07 09:14 -36.91941 142.30980 6704 ft 146 kts 303°
2026-05-07 09:15 -36.91286 142.29941 6700 ft 155 kts 304°
2026-05-07 09:15 -36.90608 142.28867 6694 ft 161 kts 304°
2026-05-07 09:15 -36.89922 142.27779 6687 ft 158 kts 304°
2026-05-07 09:15 -36.89257 142.26727 6678 ft 146 kts 304°
2026-05-07 09:16 -36.88652 142.25772 6674 ft 133 kts 304°
2026-05-07 09:16 -36.88090 142.24890 6680 ft 125 kts 303°
2026-05-07 09:16 -36.87546 142.24034 6686 ft 128 kts 303°
2026-05-07 09:16 -36.86990 142.23158 6685 ft 129 kts 303°
2026-05-07 09:17 -36.86427 142.22270 6684 ft 130 kts 303°
2026-05-07 09:17 -36.86053 142.21678 6684 ft 130 kts 303°
2026-05-07 09:17 -36.85307 142.20493 6686 ft 131 kts 303°
2026-05-07 09:17 -36.84748 142.19595 6689 ft 131 kts 301°
2026-05-07 09:18 -36.84219 142.18658 6690 ft 131 kts 300°
2026-05-07 09:18 -36.83693 142.17729 6691 ft 131 kts 301°
2026-05-07 09:18 -36.83343 142.17113 6691 ft 132 kts 301°
2026-05-07 09:18 -36.82632 142.15858 6687 ft 132 kts 301°
2026-05-07 09:19 -36.82101 142.14920 6687 ft 132 kts 301°
2026-05-07 09:19 -36.81567 142.13977 6688 ft 132 kts 301°
2026-05-07 09:19 -36.81037 142.13039 6690 ft 132 kts 301°
2026-05-07 09:19 -36.80683 142.12411 6690 ft 132 kts 301°
2026-05-07 09:20 -36.80151 142.11472 6690 ft 133 kts 301°
2026-05-07 09:20 -36.79442 142.10216 6693 ft 133 kts 301°
2026-05-07 09:20 -36.78909 142.09274 6694 ft 133 kts 301°
2026-05-07 09:20 -36.78377 142.08334 6695 ft 133 kts 301°
2026-05-07 09:21 -36.77845 142.07393 6696 ft 133 kts 301°
2026-05-07 09:21 -36.77313 142.06451 6694 ft 133 kts 301°
2026-05-07 09:21 -36.76960 142.05824 6694 ft 133 kts 301°
2026-05-07 09:21 -36.76253 142.04570 6693 ft 133 kts 301°
2026-05-07 09:22 -36.75721 142.03626 6693 ft 133 kts 301°
2026-05-07 09:22 -36.75185 142.02679 6692 ft 133 kts 300°
2026-05-07 09:22 -36.74650 142.01737 6693 ft 133 kts 301°
2026-05-07 09:22 -36.74117 142.00792 6693 ft 133 kts 300°
2026-05-07 09:23 -36.73768 142.00176 6693 ft 133 kts 300°
2026-05-07 09:23 -36.73052 141.98909 6692 ft 133 kts 300°
2026-05-07 09:23 -36.72524 141.97967 6694 ft 133 kts 300°
2026-05-07 09:23 -36.71995 141.97029 6695 ft 133 kts 301°
2026-05-07 09:24 -36.71462 141.96081 6696 ft 133 kts 301°
2026-05-07 09:24 -36.70931 141.95138 6695 ft 133 kts 301°
2026-05-07 09:24 -36.70574 141.94508 6693 ft 133 kts 300°
2026-05-07 09:24 -36.69865 141.93254 6692 ft 133 kts 300°
2026-05-07 09:25 -36.69333 141.92311 6694 ft 132 kts 300°
2026-05-07 09:25 -36.68980 141.91687 6693 ft 132 kts 300°
2026-05-07 09:25 -36.68272 141.90433 6695 ft 132 kts 300°
2026-05-07 09:25 -36.67748 141.89502 6696 ft 132 kts 300°
2026-05-07 09:26 -36.67214 141.88554 6698 ft 132 kts 300°
2026-05-07 09:26 -36.66863 141.87935 6700 ft 132 kts 300°
2026-05-07 09:26 -36.66157 141.86682 6702 ft 132 kts 300°
2026-05-07 09:26 -36.65628 141.85742 6703 ft 132 kts 300°
2026-05-07 09:27 -36.65093 141.84793 6706 ft 132 kts 300°
2026-05-07 09:27 -36.64565 141.83855 6704 ft 132 kts 300°
2026-05-07 09:27 -36.63686 141.82291 6702 ft 132 kts 300°
2026-05-07 09:28 -36.62981 141.81033 6704 ft 132 kts 300°
2026-05-07 09:28 -36.62453 141.80092 6706 ft 132 kts 300°
2026-05-07 09:28 -36.61930 141.79163 6706 ft 133 kts 300°
2026-05-07 09:28 -36.61395 141.78212 6705 ft 133 kts 300°
2026-05-07 09:29 -36.60866 141.77271 6705 ft 133 kts 300°
2026-05-07 09:29 -36.60337 141.76331 6704 ft 133 kts 300°
2026-05-07 09:29 -36.59805 141.75385 6705 ft 133 kts 300°
2026-05-07 09:29 -36.59271 141.74440 6705 ft 133 kts 300°
2026-05-07 09:30 -36.58743 141.73502 6705 ft 133 kts 300°
2026-05-07 09:30 -36.58213 141.72563 6705 ft 133 kts 300°
2026-05-07 09:30 -36.57679 141.71613 6705 ft 133 kts 300°
2026-05-07 09:30 -36.57150 141.70670 6705 ft 133 kts 300°
2026-05-07 09:31 -36.56621 141.69728 6706 ft 133 kts 300°
2026-05-07 09:31 -36.56093 141.68790 6706 ft 132 kts 300°
2026-05-07 09:31 -36.55570 141.67853 6707 ft 132 kts 300°
2026-05-07 09:31 -36.55042 141.66913 6707 ft 132 kts 300°
2026-05-07 09:32 -36.54516 141.65970 6707 ft 132 kts 300°
2026-05-07 09:32 -36.53988 141.65030 6706 ft 132 kts 300°
2026-05-07 09:32 -36.53461 141.64090 6707 ft 132 kts 300°
2026-05-07 09:32 -36.52933 141.63152 6707 ft 132 kts 300°
2026-05-07 09:33 -36.52403 141.62209 6708 ft 133 kts 300°
2026-05-07 09:33 -36.51874 141.61264 6708 ft 133 kts 300°
2026-05-07 09:33 -36.51345 141.60321 6708 ft 133 kts 300°
2026-05-07 09:33 -36.50819 141.59386 6709 ft 133 kts 300°
2026-05-07 09:34 -36.50285 141.58434 6709 ft 133 kts 300°
2026-05-07 09:34 -36.49753 141.57489 6707 ft 133 kts 300°
2026-05-07 09:34 -36.49225 141.56545 6707 ft 133 kts 300°
2026-05-07 09:34 -36.48880 141.55928 6707 ft 133 kts 300°
2026-05-07 09:35 -36.48354 141.54985 6707 ft 132 kts 300°
2026-05-07 09:35 -36.47649 141.53728 6707 ft 132 kts 300°
2026-05-07 09:35 -36.47123 141.52791 6707 ft 132 kts 300°
2026-05-07 09:35 -36.46598 141.51851 6707 ft 132 kts 300°
2026-05-07 09:36 -36.46073 141.50915 6707 ft 132 kts 300°
2026-05-07 09:36 -36.45542 141.49966 6708 ft 132 kts 300°
2026-05-07 09:36 -36.45016 141.49028 6708 ft 132 kts 300°
2026-05-07 09:36 -36.44664 141.48398 6709 ft 133 kts 300°
2026-05-07 09:37 -36.43961 141.47142 6709 ft 133 kts 300°
2026-05-07 09:37 -36.43439 141.46213 6709 ft 133 kts 299°
2026-05-07 09:37 -36.42905 141.45258 6708 ft 133 kts 299°
2026-05-07 09:37 -36.42384 141.44327 6709 ft 133 kts 299°
2026-05-07 09:38 -36.42033 141.43698 6709 ft 133 kts 299°
2026-05-07 09:38 -36.41327 141.42432 6704 ft 132 kts 299°
2026-05-07 09:38 -36.40803 141.41495 6709 ft 132 kts 299°
2026-05-07 09:38 -36.40456 141.40872 6708 ft 132 kts 299°
2026-05-07 09:39 -36.39754 141.39616 6710 ft 132 kts 299°
2026-05-07 09:39 -36.39404 141.38989 6709 ft 132 kts 299°
2026-05-07 09:39 -36.38880 141.38052 6709 ft 132 kts 299°
2026-05-07 09:39 -36.38153 141.36801 6709 ft 133 kts 303°
2026-05-07 09:40 -36.37572 141.35899 6711 ft 133 kts 303°
2026-05-07 09:40 -36.36995 141.35004 6712 ft 134 kts 303°
2026-05-07 09:40 -36.36599 141.34392 6716 ft 134 kts 304°
2026-05-07 09:40 -36.35820 141.33192 6715 ft 134 kts 303°
2026-05-07 09:41 -36.35234 141.32291 6718 ft 134 kts 303°
2026-05-07 09:41 -36.34649 141.31384 6717 ft 134 kts 302°
2026-05-07 09:41 -36.34105 141.30470 6763 ft 130 kts 299°
2026-05-07 09:41 -36.33569 141.29520 6656 ft 139 kts 301°
2026-05-07 09:42 -36.33006 141.28464 6450 ft 148 kts 295°
2026-05-07 09:42 -36.32694 141.27757 6627 ft 131 kts 295°
2026-05-07 09:42 -36.32372 141.26836 6754 ft 119 kts 281°
2026-05-07 09:42 -36.31996 141.25619 6903 ft 110 kts 293°
2026-05-07 09:43 -36.31556 141.24803 6871 ft 116 kts 303°
2026-05-07 09:43 -36.31043 141.24002 6845 ft 121 kts 303°
2026-05-07 09:43 -36.30680 141.23436 6801 ft 130 kts 303°
2026-05-07 09:43 -36.29888 141.22203 6730 ft 141 kts 303°
2026-05-07 09:44 -36.29260 141.21233 6720 ft 144 kts 304°
2026-05-07 09:44 -36.28844 141.20586 6716 ft 145 kts 303°
2026-05-07 09:44 -36.28002 141.19282 6715 ft 146 kts 303°
2026-05-07 09:44 -36.27574 141.18617 6715 ft 146 kts 303°
2026-05-07 09:45 -36.26727 141.17302 6715 ft 147 kts 304°
2026-05-07 09:45 -36.26306 141.16643 6714 ft 147 kts 303°
2026-05-07 09:45 -36.25379 141.15372 6704 ft 147 kts 308°
2026-05-07 09:45 -36.24682 141.14467 6699 ft 143 kts 308°
2026-05-07 09:46 -36.23999 141.13577 6696 ft 141 kts 308°
2026-05-07 09:46 -36.23550 141.12996 6696 ft 140 kts 308°
2026-05-07 09:46 -36.22662 141.11844 6696 ft 138 kts 308°
2026-05-07 09:46 -36.22223 141.11273 6697 ft 137 kts 308°
2026-05-07 09:47 -36.21567 141.10422 6696 ft 136 kts 308°
2026-05-07 09:47 -36.20700 141.09294 6697 ft 136 kts 308°
2026-05-07 09:47 -36.20049 141.08447 6698 ft 135 kts 308°
2026-05-07 09:47 -36.19399 141.07600 6701 ft 135 kts 308°
2026-05-07 09:48 -36.18969 141.07040 6701 ft 135 kts 308°
2026-05-07 09:48 -36.18108 141.05919 6705 ft 135 kts 308°
2026-05-07 09:48 -36.17669 141.05348 6707 ft 135 kts 308°
2026-05-07 09:48 -36.17021 141.04507 6712 ft 135 kts 307°
2026-05-07 09:49 -36.16373 141.03665 6718 ft 135 kts 307°
2026-05-07 09:49 -36.15507 141.02537 6718 ft 136 kts 307°
2026-05-07 09:49 -36.15077 141.01975 6719 ft 136 kts 308°
2026-05-07 09:49 -36.14203 141.00832 6720 ft 136 kts 308°
2026-05-07 09:50 -36.13770 141.00262 6720 ft 136 kts 308°
2026-05-07 09:50 -36.13118 140.99412 6720 ft 136 kts 308°
2026-05-07 09:50 -36.12465 140.98563 6719 ft 136 kts 308°
2026-05-07 09:50 -36.11593 140.97432 6719 ft 136 kts 308°
2026-05-07 09:51 -36.10936 140.96579 6717 ft 136 kts 308°
2026-05-07 09:51 -36.10503 140.96016 6761 ft 132 kts 308°
2026-05-07 09:51 -36.09696 140.94963 6891 ft 125 kts 307°
2026-05-07 09:51 -36.09090 140.94171 6901 ft 127 kts 307°
2026-05-07 09:52 -36.08662 140.93608 6557 ft 152 kts 308°
2026-05-07 09:52 -36.07926 140.92648 6445 ft 153 kts 308°
2026-05-07 09:52 -36.07195 140.91701 6419 ft 149 kts 308°
2026-05-07 09:52 -36.06484 140.90775 6367 ft 148 kts 308°
2026-05-07 09:53 -36.05776 140.89854 6361 ft 145 kts 308°
2026-05-07 09:53 -36.05086 140.88954 6363 ft 143 kts 307°
2026-05-07 09:53 -36.04187 140.87779 6363 ft 141 kts 308°
2026-05-07 09:53 -36.03514 140.86897 6363 ft 140 kts 308°
2026-05-07 09:54 -36.02852 140.86031 6364 ft 139 kts 308°
2026-05-07 09:54 -36.02182 140.85158 6362 ft 139 kts 308°
2026-05-07 09:54 -36.01517 140.84294 6357 ft 138 kts 307°
2026-05-07 09:54 -36.00862 140.83441 6359 ft 138 kts 307°
2026-05-07 09:55 -36.00199 140.82575 6363 ft 137 kts 307°
2026-05-07 09:55 -35.99763 140.82005 6364 ft 137 kts 307°
2026-05-07 09:55 -35.98884 140.80858 6363 ft 137 kts 307°
2026-05-07 09:55 -35.98230 140.80005 6363 ft 138 kts 307°
2026-05-07 09:56 -35.97787 140.79428 6364 ft 138 kts 307°
2026-05-07 09:56 -35.97134 140.78575 6364 ft 138 kts 307°
2026-05-07 09:56 -35.96474 140.77710 6364 ft 138 kts 307°
2026-05-07 09:56 -35.95596 140.76562 6364 ft 137 kts 307°
2026-05-07 09:57 -35.95158 140.75990 6364 ft 137 kts 307°
2026-05-07 09:57 -35.94500 140.75127 6362 ft 137 kts 307°
2026-05-07 09:57 -35.93845 140.74269 6362 ft 137 kts 307°
2026-05-07 09:57 -35.93192 140.73413 6366 ft 137 kts 307°
2026-05-07 09:58 -35.92540 140.72557 6367 ft 137 kts 308°
2026-05-07 09:58 -35.91881 140.71695 6367 ft 138 kts 308°
2026-05-07 09:58 -35.91217 140.70828 6364 ft 138 kts 307°
2026-05-07 09:58 -35.90559 140.69968 6366 ft 138 kts 307°
2026-05-07 09:59 -35.89904 140.69113 6366 ft 138 kts 307°
2026-05-07 09:59 -35.89025 140.67964 6365 ft 137 kts 307°
2026-05-07 09:59 -35.88589 140.67395 6364 ft 138 kts 307°
2026-05-07 09:59 -35.87716 140.66252 6366 ft 138 kts 307°
2026-05-07 10:00 -35.87279 140.65680 6366 ft 138 kts 307°
2026-05-07 10:00 -35.86392 140.64522 6365 ft 138 kts 307°
2026-05-07 10:00 -35.85956 140.63951 6366 ft 137 kts 307°
2026-05-07 10:00 -35.85081 140.62804 6368 ft 137 kts 307°
2026-05-07 10:01 -35.84425 140.61942 6370 ft 137 kts 307°
2026-05-07 10:01 -35.83992 140.61374 6369 ft 137 kts 307°
2026-05-07 10:01 -35.83128 140.60237 6370 ft 136 kts 305°
2026-05-07 10:01 -35.82721 140.59622 6371 ft 136 kts 304°
2026-05-07 10:02 -35.81923 140.58421 6370 ft 136 kts 303°
2026-05-07 10:02 -35.81328 140.57526 6370 ft 136 kts 303°
2026-05-07 10:02 -35.80930 140.56926 6373 ft 136 kts 303°
2026-05-07 10:02 -35.80332 140.56023 6375 ft 136 kts 303°
2026-05-07 10:03 -35.79725 140.55107 6375 ft 136 kts 303°
2026-05-07 10:03 -35.79134 140.54213 6375 ft 136 kts 303°
2026-05-07 10:03 -35.78534 140.53305 6375 ft 136 kts 303°
2026-05-07 10:03 -35.77735 140.52098 6372 ft 136 kts 303°
2026-05-07 10:04 -35.77334 140.51488 6370 ft 136 kts 303°
2026-05-07 10:04 -35.76738 140.50589 6369 ft 136 kts 303°
2026-05-07 10:04 -35.76134 140.49677 6369 ft 136 kts 303°
2026-05-07 10:04 -35.75540 140.48778 6371 ft 136 kts 303°
2026-05-07 10:05 -35.74940 140.47870 6372 ft 136 kts 303°
2026-05-07 10:05 -35.74336 140.46959 6372 ft 136 kts 303°
2026-05-07 10:05 -35.73737 140.46056 6371 ft 136 kts 303°
2026-05-07 10:05 -35.72938 140.44850 6370 ft 136 kts 303°
2026-05-07 10:06 -35.72539 140.44247 6370 ft 136 kts 303°
2026-05-07 10:06 -35.71746 140.43047 6369 ft 136 kts 303°
2026-05-07 10:06 -35.71343 140.42433 6364 ft 136 kts 302°
2026-05-07 10:06 -35.70752 140.41534 6366 ft 135 kts 302°
2026-05-07 10:07 -35.69963 140.40330 6362 ft 135 kts 302°
2026-05-07 10:07 -35.69569 140.39729 6365 ft 135 kts 303°
2026-05-07 10:07 -35.68976 140.38821 6366 ft 135 kts 303°
2026-05-07 10:07 -35.68383 140.37921 6364 ft 135 kts 303°
2026-05-07 10:08 -35.67790 140.37021 6363 ft 135 kts 303°
2026-05-07 10:08 -35.66999 140.35825 6361 ft 135 kts 303°
2026-05-07 10:08 -35.66605 140.35226 6361 ft 135 kts 303°
2026-05-07 10:08 -35.66005 140.34317 6362 ft 135 kts 304°
2026-05-07 10:09 -35.65409 140.33415 6365 ft 136 kts 304°
2026-05-07 10:09 -35.64612 140.32211 6366 ft 136 kts 304°
2026-05-07 10:09 -35.64015 140.31306 6365 ft 136 kts 303°
2026-05-07 10:09 -35.63416 140.30402 6366 ft 136 kts 304°
2026-05-07 10:10 -35.62818 140.29495 6364 ft 137 kts 304°
2026-05-07 10:10 -35.62221 140.28592 6366 ft 137 kts 303°
2026-05-07 10:10 -35.61623 140.27683 6368 ft 137 kts 303°
2026-05-07 10:10 -35.61021 140.26773 6369 ft 137 kts 303°
2026-05-07 10:11 -35.60621 140.26166 6368 ft 137 kts 303°
2026-05-07 10:11 -35.59821 140.24953 6368 ft 137 kts 303°
2026-05-07 10:11 -35.59423 140.24347 6366 ft 137 kts 303°
2026-05-07 10:11 -35.58623 140.23132 6365 ft 137 kts 303°
2026-05-07 10:12 -35.58228 140.22531 6364 ft 137 kts 303°
2026-05-07 10:12 -35.57626 140.21616 6364 ft 137 kts 304°
2026-05-07 10:12 -35.56823 140.20398 6365 ft 137 kts 304°
2026-05-07 10:12 -35.56226 140.19488 6366 ft 137 kts 304°
2026-05-07 10:13 -35.55827 140.18883 6367 ft 137 kts 304°
2026-05-07 10:13 -35.55228 140.17975 6366 ft 137 kts 304°
2026-05-07 10:13 -35.54629 140.17070 6365 ft 137 kts 303°
2026-05-07 10:13 -35.54031 140.16161 6366 ft 137 kts 303°
2026-05-07 10:14 -35.53431 140.15251 6364 ft 137 kts 303°
2026-05-07 10:14 -35.52830 140.14342 6363 ft 137 kts 303°
2026-05-07 10:14 -35.52224 140.13422 6363 ft 137 kts 303°
2026-05-07 10:14 -35.51626 140.12514 6364 ft 137 kts 303°
2026-05-07 10:15 -35.50834 140.11307 6367 ft 136 kts 303°
2026-05-07 10:15 -35.50439 140.10706 6368 ft 136 kts 303°
2026-05-07 10:15 -35.49839 140.09790 6368 ft 136 kts 303°
2026-05-07 10:15 -35.49246 140.08891 6368 ft 136 kts 303°
2026-05-07 10:16 -35.48454 140.07684 6368 ft 136 kts 303°
2026-05-07 10:16 -35.48057 140.07080 6369 ft 137 kts 303°
2026-05-07 10:16 -35.47452 140.06163 6367 ft 137 kts 303°
2026-05-07 10:16 -35.46854 140.05255 6364 ft 137 kts 303°
2026-05-07 10:17 -35.46257 140.04347 6364 ft 137 kts 303°
2026-05-07 10:17 -35.45454 140.03125 6365 ft 137 kts 303°
2026-05-07 10:17 -35.45056 140.02519 6366 ft 137 kts 303°
2026-05-07 10:17 -35.44458 140.01608 6368 ft 137 kts 303°
2026-05-07 10:18 -35.43657 140.00389 6370 ft 137 kts 303°
2026-05-07 10:18 -35.43259 139.99785 6370 ft 137 kts 303°
2026-05-07 10:18 -35.42455 139.98560 6369 ft 137 kts 303°
2026-05-07 10:18 -35.42058 139.97955 6370 ft 137 kts 303°
2026-05-07 10:19 -35.41459 139.97046 6371 ft 137 kts 303°
2026-05-07 10:19 -35.40866 139.96141 6370 ft 136 kts 303°
2026-05-07 10:19 -35.40272 139.95238 6370 ft 136 kts 303°
2026-05-07 10:19 -35.39669 139.94322 6371 ft 137 kts 303°
2026-05-07 10:20 -35.38875 139.93112 6371 ft 137 kts 303°
2026-05-07 10:20 -35.38280 139.92206 6371 ft 137 kts 303°
2026-05-07 10:20 -35.37885 139.91605 6373 ft 137 kts 303°
2026-05-07 10:20 -35.37281 139.90681 6373 ft 137 kts 303°
2026-05-07 10:21 -35.36684 139.89769 6375 ft 137 kts 303°
2026-05-07 10:21 -35.35887 139.88553 6374 ft 137 kts 303°
2026-05-07 10:21 -35.35487 139.87942 6371 ft 138 kts 303°
2026-05-07 10:21 -35.34887 139.87025 6370 ft 137 kts 303°
2026-05-07 10:22 -35.34290 139.86113 6372 ft 137 kts 303°
2026-05-07 10:22 -35.33693 139.85204 6374 ft 137 kts 303°
2026-05-07 10:22 -35.33088 139.84282 6374 ft 137 kts 303°
2026-05-07 10:22 -35.32494 139.83379 6376 ft 137 kts 303°
2026-05-07 10:23 -35.31697 139.82161 6378 ft 137 kts 303°
2026-05-07 10:23 -35.31101 139.81250 6382 ft 136 kts 303°
2026-05-07 10:23 -35.30506 139.80344 6383 ft 136 kts 303°
2026-05-07 10:23 -35.30117 139.79750 6386 ft 136 kts 303°
2026-05-07 10:24 -35.29323 139.78538 6389 ft 136 kts 303°
2026-05-07 10:24 -35.28723 139.77622 6391 ft 137 kts 303°
2026-05-07 10:24 -35.28327 139.77016 6394 ft 137 kts 303°
2026-05-07 10:24 -35.27734 139.76109 6396 ft 137 kts 303°
2026-05-07 10:25 -35.27136 139.75194 6396 ft 137 kts 303°
2026-05-07 10:25 -35.26540 139.74283 6393 ft 137 kts 303°
2026-05-07 10:25 -35.25943 139.73370 6389 ft 137 kts 303°
2026-05-07 10:25 -35.25342 139.72450 6390 ft 138 kts 303°
2026-05-07 10:26 -35.24744 139.71533 6391 ft 138 kts 303°
2026-05-07 10:26 -35.24143 139.70618 6390 ft 138 kts 303°
2026-05-07 10:26 -35.23549 139.69708 6389 ft 138 kts 303°
2026-05-07 10:26 -35.22949 139.68794 6389 ft 138 kts 303°
2026-05-07 10:27 -35.22140 139.67561 6388 ft 138 kts 303°
2026-05-07 10:27 -35.21748 139.66960 6388 ft 138 kts 303°
2026-05-07 10:27 -35.21140 139.66032 6389 ft 138 kts 303°
2026-05-07 10:27 -35.20541 139.65115 6389 ft 138 kts 303°
2026-05-07 10:28 -35.19745 139.63898 6390 ft 138 kts 303°
2026-05-07 10:28 -35.19192 139.62956 6385 ft 134 kts 286°
2026-05-07 10:28 -35.19173 139.62224 6397 ft 130 kts 253°
2026-05-07 10:28 -35.19363 139.61154 6398 ft 130 kts 259°
2026-05-07 10:29 -35.19503 139.60056 6397 ft 130 kts 260°
2026-05-07 10:29 -35.19568 139.58945 6392 ft 131 kts 272°
2026-05-07 10:29 -35.19512 139.57812 6395 ft 132 kts 271°
2026-05-07 10:30 -35.19382 139.55188 6389 ft 133 kts 271°
2026-05-07 10:30 -35.19344 139.54436 6388 ft 133 kts 270°
2026-05-07 10:30 -35.19268 139.52920 6387 ft 133 kts 270°
2026-05-07 10:30 -35.19211 139.51791 6385 ft 133 kts 270°
2026-05-07 10:31 -35.19173 139.51033 6385 ft 133 kts 270°
2026-05-07 10:31 -35.19117 139.49907 6385 ft 133 kts 270°
2026-05-07 10:31 -35.19062 139.48785 6387 ft 133 kts 270°
2026-05-07 10:31 -35.19007 139.47656 6388 ft 133 kts 270°
2026-05-07 10:32 -35.18952 139.46527 6389 ft 133 kts 270°
2026-05-07 10:32 -35.18896 139.45396 6391 ft 133 kts 270°
2026-05-07 10:32 -35.18841 139.44266 6388 ft 133 kts 270°
2026-05-07 10:32 -35.18787 139.43129 6384 ft 133 kts 270°
2026-05-07 10:33 -35.18733 139.42007 6381 ft 133 kts 270°
2026-05-07 10:33 -35.18658 139.40497 6379 ft 133 kts 270°
2026-05-07 10:33 -35.18621 139.39741 6379 ft 133 kts 270°
2026-05-07 10:33 -35.18566 139.38609 6379 ft 133 kts 270°
2026-05-07 10:34 -35.18492 139.37108 6383 ft 133 kts 270°
2026-05-07 10:34 -35.18456 139.36350 6383 ft 134 kts 270°
2026-05-07 10:34 -35.18383 139.34843 6384 ft 134 kts 271°
2026-05-07 10:34 -35.18347 139.34087 6385 ft 134 kts 271°
2026-05-07 10:35 -35.18292 139.32951 6385 ft 134 kts 271°
2026-05-07 10:35 -35.18236 139.31801 6384 ft 134 kts 271°
2026-05-07 10:35 -35.18164 139.30293 6380 ft 134 kts 270°
2026-05-07 10:35 -35.18127 139.29532 6380 ft 134 kts 271°
2026-05-07 10:36 -35.18073 139.28386 6381 ft 134 kts 271°
2026-05-07 10:36 -35.18019 139.27258 6381 ft 134 kts 270°
2026-05-07 10:36 -35.17946 139.25731 6382 ft 134 kts 271°
2026-05-07 10:36 -35.17911 139.24973 6381 ft 134 kts 271°
2026-05-07 10:37 -35.17857 139.23833 6381 ft 134 kts 271°
2026-05-07 10:37 -35.17802 139.22690 6380 ft 134 kts 271°
2026-05-07 10:37 -35.17748 139.21549 6381 ft 134 kts 271°
2026-05-07 10:37 -35.17694 139.20419 6382 ft 134 kts 270°
2026-05-07 10:38 -35.17621 139.18889 6384 ft 135 kts 270°
2026-05-07 10:38 -35.17585 139.18124 6383 ft 135 kts 270°
2026-05-07 10:38 -35.17513 139.16603 6380 ft 135 kts 270°
2026-05-07 10:38 -35.17459 139.15456 6378 ft 135 kts 270°
2026-05-07 10:39 -35.17424 139.14705 6378 ft 135 kts 270°
2026-05-07 10:39 -35.17369 139.13557 6382 ft 135 kts 270°
2026-05-07 10:39 -35.17313 139.12407 6382 ft 135 kts 270°
2026-05-07 10:39 -35.17239 139.10886 6384 ft 135 kts 270°
2026-05-07 10:40 -35.17185 139.09744 6382 ft 135 kts 270°
2026-05-07 10:40 -35.17134 139.08603 6377 ft 135 kts 270°
2026-05-07 10:40 -35.17083 139.07457 6372 ft 132 kts 270°
2026-05-07 10:40 -35.17051 139.06717 6374 ft 132 kts 270°
2026-05-07 10:41 -35.16999 139.05547 6159 ft 146 kts 270°
2026-05-07 10:41 -35.16940 139.04352 5818 ft 129 kts 271°
2026-05-07 10:41 -35.16893 139.03349 5468 ft 113 kts 270°
2026-05-07 10:41 -35.16849 139.02461 5124 ft 101 kts 270°
2026-05-07 10:42 -35.16810 139.01643 4787 ft 94 kts 270°
2026-05-07 10:42 -35.16761 139.00607 4346 ft 91 kts 270°
2026-05-07 10:42 -35.16725 138.99786 4049 ft 110 kts 270°
2026-05-07 10:42 -35.16695 138.99123 3875 ft 123 kts 270°
2026-05-07 10:43 -35.16646 138.98062 3803 ft 126 kts 270°
2026-05-07 10:43 -35.16597 138.97002 3788 ft 124 kts 270°
2026-05-07 10:43 -35.16534 138.95619 3784 ft 121 kts 270°
2026-05-07 10:43 -35.16488 138.94608 3781 ft 119 kts 270°
2026-05-07 10:44 -35.16456 138.93938 3780 ft 118 kts 270°
2026-05-07 10:44 -35.16411 138.92947 3776 ft 116 kts 270°
2026-05-07 10:44 -35.16352 138.91641 3776 ft 115 kts 270°
2026-05-07 10:44 -35.16322 138.90982 3776 ft 114 kts 270°
2026-05-07 10:45 -35.16306 138.89668 3623 ft 123 kts 270°
2026-05-07 10:45 -35.16279 138.88950 3517 ft 129 kts 270°
2026-05-07 10:45 -35.16214 138.87460 3394 ft 130 kts 270°
2026-05-07 10:45 -35.16182 138.86728 3381 ft 128 kts 270°
2026-05-07 10:46 -35.16119 138.85289 3375 ft 126 kts 270°
2026-05-07 10:46 -35.16088 138.84582 3375 ft 125 kts 271°
2026-05-07 10:46 -35.16042 138.83516 3338 ft 127 kts 271°
2026-05-07 10:46 -35.16098 138.82423 3205 ft 133 kts 271°
2026-05-07 10:47 -35.16047 138.81280 3093 ft 137 kts 271°
2026-05-07 10:47 -35.15995 138.80115 2964 ft 139 kts 271°
2026-05-07 10:47 -35.15943 138.78923 2836 ft 141 kts 271°
2026-05-07 10:47 -35.15873 138.77331 2787 ft 137 kts 271°
2026-05-07 10:48 -35.15839 138.76562 2782 ft 135 kts 271°
2026-05-07 10:48 -35.15790 138.75436 2776 ft 132 kts 271°
2026-05-07 10:48 -35.15724 138.73947 2776 ft 128 kts 271°
2026-05-07 10:48 -35.15677 138.72890 2769 ft 120 kts 271°
2026-05-07 10:49 -35.15648 138.72226 2773 ft 116 kts 271°
2026-05-07 10:49 -35.15604 138.71263 2783 ft 111 kts 269°
2026-05-07 10:49 -35.15595 138.70340 2719 ft 107 kts 266°
2026-05-07 10:49 -35.15596 138.69431 2693 ft 108 kts 269°
2026-05-07 10:50 -35.15506 138.68481 2451 ft 121 kts 277°
2026-05-07 10:50 -35.15343 138.67438 2251 ft 126 kts 279°
2026-05-07 10:50 -35.15176 138.66371 2105 ft 126 kts 277°
2026-05-07 10:50 -35.15464 138.65399 2029 ft 120 kts 246°
2026-05-07 10:51 -35.15610 138.64452 2055 ft 109 kts 278°
2026-05-07 10:51 -35.15288 138.63661 2077 ft 101 kts 296°
2026-05-07 10:51 -35.14952 138.62543 1974 ft 100 kts 259°
2026-05-07 10:51 -35.14984 138.61992 1990 ft 95 kts 271°
2026-05-07 10:52 -35.14967 138.61191 1937 ft 97 kts 272°
2026-05-07 10:52 -35.14931 138.60361 1869 ft 99 kts 275°
2026-05-07 10:52 -35.14841 138.59531 1827 ft 98 kts 275°
2026-05-07 10:52 -35.14742 138.58702 1791 ft 94 kts 259°
2026-05-07 10:53 -35.14634 138.57503 1590 ft 130 kts 265°
2026-05-07 10:53 -35.14861 138.56812 1662 ft 137 kts 243°
2026-05-07 10:53 -35.15310 138.55747 1619 ft 143 kts 246°
2026-05-07 10:53 -35.15683 138.54707 1554 ft 114 kts 252°
2026-05-07 10:54 -35.15906 138.53915 1382 ft 85 kts 253°
2026-05-07 10:54 -35.16070 138.53247 1198 ft 81 kts 259°
2026-05-07 10:54 -35.16182 138.52516 1054 ft 98 kts 260°
2026-05-07 10:54 -35.16047 138.51332 923 ft 114 kts 290°
2026-05-07 10:55 -35.15861 138.50366 579 ft 124 kts 272°
2026-05-07 10:55 -35.15880 138.49670 435 ft 123 kts 266°
2026-05-07 10:55 -35.15561 138.48659 475 ft 96 kts 336°
2026-05-07 10:55 -35.15126 138.48630 477 ft 90 kts 21°
2026-05-07 10:56 -35.15243 138.49071 428 ft 96 kts 180°
2026-05-07 10:56 -35.15689 138.49515 416 ft 67 kts 171°
2026-05-07 10:56 -35.16122 138.49449 258 ft 62 kts 191°
2026-05-07 10:56 -35.16692 138.49432 57 ft 58 kts 190°
2026-05-07 10:57 -35.16951 138.49420 72 ft 59 kts 176°
2026-05-07 10:57 -35.17368 138.49461 405 ft 66 kts 178°
2026-05-07 10:57 -35.17811 138.49661 733 ft 80 kts 104°
2026-05-07 10:57 -35.17285 138.50179 675 ft 68 kts 15°
2026-05-07 10:58 -35.16991 138.50317 587 ft 79 kts
2026-05-07 10:58 -35.16168 138.50514 569 ft 89 kts
2026-05-07 10:58 -35.15572 138.50548 536 ft 79 kts 336°
2026-05-07 10:58 -35.15475 138.50264 692 ft 67 kts 212°
2026-05-07 10:59 -35.15836 138.49681 386 ft 71 kts 224°
2026-05-07 10:59 -35.16106 138.49503 292 ft 63 kts 221°
2026-05-07 10:59 -35.16542 138.49455 219 ft 67 kts 187°
2026-05-07 10:59 -35.16971 138.49474 565 ft 73 kts 179°
2026-05-07 11:00 -35.17542 138.49486 764 ft 101 kts 180°
2026-05-07 11:00 -35.18140 138.49928 1041 ft 127 kts 88°
2026-05-07 11:00 -35.17442 138.50578 1064 ft 145 kts
2026-05-07 11:00 -35.16571 138.50810 1026 ft 112 kts
2026-05-07 11:01 -35.15605 138.51047 903 ft 97 kts
2026-05-07 11:01 -35.15171 138.51111 877 ft 91 kts 352°
2026-05-07 11:01 -35.14929 138.50691 950 ft 66 kts 261°
2026-05-07 11:01 -35.14973 138.50128 762 ft 64 kts 269°
2026-05-07 11:02 -35.15125 138.49515 732 ft 61 kts 201°
2026-05-07 11:02 -35.15409 138.49512 626 ft 66 kts 186°
2026-05-07 11:02 -35.15881 138.49474 391 ft 71 kts 192°
2026-05-07 11:02 -35.16350 138.49446 186 ft 65 kts 187°
2026-05-07 11:03 -35.16916 138.49423 22 ft 52 kts 187°
2026-05-07 11:03 -35.17083 138.49411 22 ft 23 kts 180°
2026-05-07 11:03 -35.17189 138.49402 22 ft 5 kts 257°
2026-05-07 11:03 -35.17204 138.49332 24 ft 2 kts 242°
2026-05-07 11:04 -35.17216 138.49318 25 ft 6 kts 224°
2026-05-07 11:04 -35.17240 138.49301 26 ft 5 kts 130°
2026-05-07 11:04 -35.17228 138.49278 27 ft 4 kts 298°
2026-05-07 11:04 -35.17221 138.49281 26 ft 0 kts 169°